Time;durP1;ratioP1;P1;durP2;ratioP2;P2;SDS_P1;SDS_P2;PMS_P1;PMS_P2;Temp;Humidity;BMP_temperature;BMP_pressure;BME280_temperature;BME280_humidity;BME280_pressure;Samples;Min_cycle;Max_cycle;Signal;HPM_P1;HPM_P2
2021/03/31 00:00:44;;;;;;;32.87;22.13;;;;;;;14.03;50.71;102295.34;5077528;28;20259;-67
2021/03/31 00:03:15;;;;;;;28.00;21.20;;;;;;;13.98;50.43;102294.34;5077719;28;20220;-68
2021/03/31 00:05:42;;;;;;;27.53;18.90;;;;;;;13.80;51.03;102286.97;5078459;28;20180;-68
2021/03/31 00:08:08;;;;;;;25.93;19.40;;;;;;;13.74;50.65;102282.50;5080204;28;20469;-71
2021/03/31 00:10:44;;;;;;;24.20;19.20;;;;;;;13.47;51.93;102288.88;5077862;28;20423;-71
2021/03/31 00:13:10;;;;;;;23.20;19.33;;;;;;;13.39;52.28;102279.97;5077477;28;20216;-70
2021/03/31 00:15:36;;;;;;;23.57;19.53;;;;;;;13.55;51.38;102269.84;5077784;28;20472;-70
2021/03/31 00:18:07;;;;;;;24.03;19.60;;;;;;;13.68;51.24;102269.28;5078012;28;20450;-69
2021/03/31 00:20:33;;;;;;;22.53;16.83;;;;;;;14.08;49.66;102262.19;5077793;28;20890;-68
2021/03/31 00:23:05;;;;;;;25.30;20.10;;;;;;;13.58;51.53;102262.06;5077576;28;20518;-69
2021/03/31 00:25:30;;;;;;;26.67;19.30;;;;;;;13.73;51.54;102254.50;5077537;28;20213;-70
2021/03/31 00:27:56;;;;;;;35.83;25.33;;;;;;;13.46;52.15;102255.72;5077692;28;20668;-70
2021/03/31 00:30:21;;;;;;;33.20;25.20;;;;;;;13.51;52.05;102257.53;5078434;28;20564;-70
2021/03/31 00:32:47;;;;;;;32.30;25.50;;;;;;;13.50;52.12;102258.38;5077409;28;20580;-70
2021/03/31 00:35:13;;;;;;;23.67;19.70;;;;;;;13.24;53.16;102250.78;5077614;28;20176;-70
2021/03/31 00:37:38;;;;;;;29.70;25.03;;;;;;;13.49;52.46;102254.88;5077961;28;20440;-69
2021/03/31 00:40:10;;;;;;;25.93;20.73;;;;;;;13.28;52.80;102252.63;5077484;28;20168;-69
2021/03/31 00:42:35;;;;;;;31.47;20.50;;;;;;;12.94;53.61;102250.09;5077425;28;20177;-70
2021/03/31 00:45:02;;;;;;;26.43;21.03;;;;;;;13.48;51.88;102248.75;5077885;28;20414;-69
2021/03/31 00:47:27;;;;;;;29.67;21.80;;;;;;;13.47;52.25;102246.97;5060348;28;20176;-69
2021/03/31 00:49:53;;;;;;;29.53;18.70;;;;;;;13.32;52.67;102239.63;5076831;28;20419;-68
2021/03/31 00:52:18;;;;;;;32.70;23.80;;;;;;;13.32;52.17;102236.13;5077522;28;20238;-68
2021/03/31 00:54:43;;;;;;;31.10;19.20;;;;;;;13.20;52.88;102235.84;5077315;28;20213;-69
2021/03/31 00:57:08;;;;;;;24.50;18.13;;;;;;;13.01;53.22;102238.03;5077227;28;20208;-70
2021/03/31 00:59:34;;;;;;;25.20;20.37;;;;;;;13.16;52.87;102231.41;5078053;28;20173;-69
2021/03/31 01:01:59;;;;;;;21.63;18.30;;;;;;;12.97;53.73;102237.09;5059840;28;20203;-70
2021/03/31 01:04:25;;;;;;;28.00;17.43;;;;;;;13.02;53.55;102231.97;5078395;28;20165;-70
2021/03/31 01:06:50;;;;;;;22.63;16.73;;;;;;;13.03;53.04;102218.03;5068169;28;20268;-70
2021/03/31 01:09:16;;;;;;;24.40;15.50;;;;;;;12.97;53.11;102221.41;5060991;28;20176;-69
2021/03/31 01:12:09;;;;;;;19.97;16.50;;;;;;;12.98;53.57;102214.41;5060795;28;20172;-70
2021/03/31 01:14:45;;;;;;;18.20;16.20;;;;;;;13.24;52.42;102216.75;5060902;28;20181;-69
2021/03/31 01:17:15;;;;;;;22.87;17.60;;;;;;;13.05;52.83;102211.09;5043645;28;20495;-69
2021/03/31 01:19:53;;;;;;;21.37;16.43;;;;;;;13.09;52.73;102209.44;5043480;28;20460;-67
2021/03/31 01:23:07;;;;;;;24.67;17.23;;;;;;;13.16;52.75;102206.09;5046416;28;20409;-71
2021/03/31 01:25:36;;;;;;;20.00;15.67;;;;;;;12.86;53.39;102203.66;5067205;28;20474;-70
2021/03/31 01:28:10;;;;;;;19.73;15.73;;;;;;;12.92;53.61;102204.69;5080588;28;20426;-68
2021/03/31 01:31:09;;;;;;;17.00;15.00;;;;;;;13.20;52.82;102199.19;5080578;28;20464;-68
2021/03/31 01:34:04;;;;;;;19.00;15.73;;;;;;;13.10;52.93;102199.00;5063029;28;20466;-68
2021/03/31 01:36:30;;;;;;;22.30;18.03;;;;;;;12.94;53.39;102202.97;5063167;28;20415;-68
2021/03/31 01:39:00;;;;;;;22.00;16.40;;;;;;;13.10;53.25;102199.00;5063212;28;20678;-67
2021/03/31 01:41:27;;;;;;;22.13;18.50;;;;;;;12.52;55.14;102208.06;5062817;28;20407;-68
2021/03/31 01:43:55;;;;;;;23.10;18.70;;;;;;;12.71;54.43;102206.78;5062865;28;20460;-68
2021/03/31 01:46:31;;;;;;;20.77;17.90;;;;;;;12.55;54.69;102203.78;5063477;28;20897;-68
2021/03/31 01:49:00;;;;;;;22.23;16.70;;;;;;;12.57;54.98;102196.88;5062812;28;20407;-67
2021/03/31 01:51:25;;;;;;;24.60;15.70;;;;;;;12.43;55.39;102203.47;5062710;28;20684;-67
2021/03/31 01:53:51;;;;;;;19.23;15.00;;;;;;;12.50;55.14;102194.06;5080334;28;20455;-66
2021/03/31 01:56:17;;;;;;;18.90;15.60;;;;;;;12.44;54.84;102197.41;5080204;28;20248;-66
2021/03/31 01:58:44;;;;;;;20.13;15.40;;;;;;;12.62;54.25;102196.97;5063247;28;20161;-68
2021/03/31 02:01:10;;;;;;;21.20;16.27;;;;;;;12.44;54.81;102195.66;5062509;28;20506;-68
2021/03/31 02:03:36;;;;;;;18.83;14.90;;;;;;;12.52;54.46;102192.38;5062554;28;20474;-67
2021/03/31 02:06:03;;;;;;;21.50;15.23;;;;;;;12.42;55.30;102186.91;5063790;28;20169;-67
2021/03/31 02:08:28;;;;;;;17.80;14.27;;;;;;;12.40;55.09;102183.34;5080687;28;20434;-67
2021/03/31 02:10:54;;;;;;;20.40;14.97;;;;;;;12.39;55.26;102188.56;5079902;28;20710;-67
2021/03/31 02:13:19;;;;;;;19.83;16.27;;;;;;;12.57;55.28;102185.50;5080069;28;20280;-67
2021/03/31 02:15:45;;;;;;;19.07;15.73;;;;;;;12.43;55.38;102178.22;5061499;28;20214;-67
2021/03/31 02:18:17;;;;;;;17.00;15.30;;;;;;;12.44;55.50;102182.59;5079756;28;20434;-68
2021/03/31 02:20:45;;;;;;;18.83;16.03;;;;;;;12.28;56.15;102183.91;5062594;28;20395;-68
2021/03/31 02:23:10;;;;;;;19.50;16.40;;;;;;;11.93;56.69;102185.56;5079507;28;20407;-68
2021/03/31 02:25:36;;;;;;;17.27;14.77;;;;;;;12.08;56.44;102186.03;5058738;28;20715;-67
2021/03/31 02:28:01;;;;;;;17.20;15.03;;;;;;;12.00;56.88;102181.44;5060069;28;20162;-67
2021/03/31 02:30:28;;;;;;;16.80;15.00;;;;;;;12.19;56.10;102174.97;5058777;28;20497;-67
2021/03/31 02:32:57;;;;;;;20.80;15.53;;;;;;;12.29;56.00;102174.38;5059268;28;20217;-68
2021/03/31 02:35:23;;;;;;;24.00;17.10;;;;;;;11.98;56.19;102173.56;5059075;28;20442;-67
2021/03/31 02:37:58;;;;;;;21.07;15.50;;;;;;;11.54;58.13;102176.69;5059231;28;20419;-67
2021/03/31 02:40:27;;;;;;;18.87;15.10;;;;;;;11.69;57.34;102178.84;5059151;28;20528;-67
2021/03/31 02:42:53;;;;;;;23.73;14.60;;;;;;;11.60;57.36;102168.13;5058349;28;20423;-67
2021/03/31 02:45:19;;;;;;;19.37;15.60;;;;;;;11.69;57.39;102173.63;5058447;28;20826;-67
2021/03/31 02:47:45;;;;;;;19.73;17.00;;;;;;;11.74;57.20;102169.38;5042085;28;20499;-67
2021/03/31 02:50:14;;;;;;;20.47;16.97;;;;;;;11.76;57.39;102172.06;5058467;28;20215;-67
2021/03/31 02:52:43;;;;;;;19.00;17.00;;;;;;;11.89;56.91;102162.81;5058413;28;20463;-68
2021/03/31 02:55:10;;;;;;;23.53;16.73;;;;;;;11.94;56.35;102162.13;5059559;28;20417;-68
2021/03/31 02:57:36;;;;;;;18.47;16.50;;;;;;;11.79;56.96;102162.56;5058869;28;20474;-67
2021/03/31 03:00:05;;;;;;;24.90;18.50;;;;;;;11.87;57.01;102154.06;5058172;28;20427;-67
2021/03/31 03:02:30;;;;;;;22.63;17.90;;;;;;;11.75;57.49;102155.47;5058991;28;20898;-67
2021/03/31 03:04:56;;;;;;;24.37;17.83;;;;;;;11.89;56.86;102152.38;5058728;28;20503;-67
2021/03/31 03:07:21;;;;;;;25.23;19.00;;;;;;;11.81;56.99;102154.75;5058202;28;20180;-68
2021/03/31 03:09:47;;;;;;;21.00;17.83;;;;;;;11.54;58.01;102147.94;5059257;28;20435;-67
2021/03/31 03:12:13;;;;;;;22.30;17.37;;;;;;;11.74;57.17;102147.59;5056476;28;20583;-67
2021/03/31 03:14:42;;;;;;;20.27;17.83;;;;;;;11.34;58.30;102150.00;5057774;28;20170;-65
2021/03/31 03:17:07;;;;;;;24.37;19.07;;;;;;;10.83;59.86;102152.78;5058160;28;20844;-67
2021/03/31 03:19:33;;;;;;;21.83;18.10;;;;;;;11.20;58.87;102140.84;5057740;28;20512;-67
2021/03/31 03:22:00;;;;;;;20.50;18.03;;;;;;;11.01;58.92;102135.06;5055251;28;20181;-68
2021/03/31 03:24:26;;;;;;;19.30;17.30;;;;;;;10.86;58.90;102134.63;5059004;28;20409;-67
2021/03/31 03:26:52;;;;;;;19.90;17.40;;;;;;;11.06;58.46;102130.00;5060980;28;20486;-68
2021/03/31 03:29:18;;;;;;;20.37;18.00;;;;;;;11.06;58.19;102132.63;5061025;28;20530;-68
2021/03/31 03:31:44;;;;;;;20.13;17.50;;;;;;;10.99;58.58;102130.66;5058445;28;20192;-67
2021/03/31 03:34:09;;;;;;;22.97;18.33;;;;;;;10.76;58.81;102133.47;5044000;28;20467;-68
2021/03/31 03:36:36;;;;;;;19.67;16.50;;;;;;;10.57;59.50;102132.88;5078761;28;20165;-68
2021/03/31 03:39:03;;;;;;;19.33;17.10;;;;;;;10.42;60.17;102138.47;5060853;28;20187;-68
2021/03/31 03:41:29;;;;;;;20.00;17.10;;;;;;;10.26;60.64;102129.22;5060657;28;20796;-68
2021/03/31 03:43:55;;;;;;;25.83;17.87;;;;;;;10.47;59.98;102129.91;5061176;28;20456;-68
2021/03/31 03:46:21;;;;;;;23.67;16.73;;;;;;;10.51;59.22;102129.16;5060530;28;20597;-69
2021/03/31 03:48:46;;;;;;;24.27;18.37;;;;;;;10.61;58.92;102132.13;5078021;28;20403;-68
2021/03/31 03:51:12;;;;;;;20.73;16.47;;;;;;;10.59;58.75;102132.91;5078309;28;20494;-68
2021/03/31 03:53:38;;;;;;;20.90;16.90;;;;;;;10.53;58.47;102135.34;5077843;28;20541;-68
2021/03/31 03:56:09;;;;;;;18.37;16.40;;;;;;;10.44;59.15;102133.28;5078026;28;20173;-67
2021/03/31 03:58:34;;;;;;;25.03;17.67;;;;;;;10.39;58.82;102129.66;5078379;28;20407;-67
2021/03/31 04:01:00;;;;;;;22.77;17.63;;;;;;;10.51;58.20;102131.78;5078100;28;20422;-69
2021/03/31 04:03:25;;;;;;;22.40;17.70;;;;;;;9.95;59.65;102124.69;5077724;28;20185;-68
2021/03/31 04:05:50;;;;;;;24.53;17.10;;;;;;;10.36;58.62;102120.00;5078509;28;20187;-68
2021/03/31 04:08:16;;;;;;;20.60;18.43;;;;;;;10.65;57.41;102111.34;5079380;28;20169;-68
2021/03/31 04:10:43;;;;;;;22.20;17.77;;;;;;;10.75;56.96;102109.06;5076240;28;20187;-67
2021/03/31 04:13:08;;;;;;;19.30;17.20;;;;;;;10.88;56.53;102104.22;5078028;28;20257;-67
2021/03/31 04:15:34;;;;;;;22.53;18.20;;;;;;;10.75;56.98;102101.25;5058203;28;20442;-67
2021/03/31 04:18:04;;;;;;;24.37;17.40;;;;;;;10.52;57.26;102100.53;5060513;28;20248;-68
2021/03/31 04:20:30;;;;;;;20.03;17.40;;;;;;;10.34;58.02;102105.16;5059200;28;20168;-67
2021/03/31 04:22:56;;;;;;;18.40;16.33;;;;;;;10.15;58.52;102111.44;5059288;28;20840;-67
2021/03/31 04:25:23;;;;;;;22.50;17.60;;;;;;;10.59;56.94;102102.53;5077875;28;20463;-67
2021/03/31 04:27:50;;;;;;;22.50;17.07;;;;;;;10.37;57.10;102100.06;5078040;28;20161;-68
2021/03/31 04:30:17;;;;;;;24.20;17.60;;;;;;;10.58;55.89;102102.44;5057871;28;20485;-67
2021/03/31 04:32:45;;;;;;;20.67;18.43;;;;;;;10.30;56.73;102098.94;5077484;28;20486;-67
2021/03/31 04:35:10;;;;;;;18.50;16.47;;;;;;;10.68;55.65;102096.69;5078125;28;20436;-67
2021/03/31 04:37:36;;;;;;;22.13;17.03;;;;;;;10.61;55.52;102095.63;5060101;28;20413;-67
2021/03/31 04:40:09;;;;;;;18.57;16.57;;;;;;;10.73;54.88;102091.59;5077965;28;20196;-67
2021/03/31 04:42:35;;;;;;;18.10;16.00;;;;;;;10.79;54.97;102087.47;5069154;28;20195;-67
2021/03/31 04:45:00;;;;;;;20.63;17.00;;;;;;;10.56;55.00;102091.97;5081362;28;20681;-67
2021/03/31 04:47:25;;;;;;;22.43;17.97;;;;;;;10.60;54.87;102087.75;5081387;28;20169;-66
2021/03/31 04:49:51;;;;;;;20.07;16.30;;;;;;;10.75;54.35;102088.22;5079822;28;20177;-68
2021/03/31 04:52:16;;;;;;;20.27;17.63;;;;;;;10.38;54.90;102089.66;5081065;28;20200;-67
2021/03/31 04:54:41;;;;;;;21.10;16.17;;;;;;;10.34;55.47;102087.78;5080083;28;20185;-67
2021/03/31 04:57:07;;;;;;;24.80;17.30;;;;;;;10.39;55.38;102091.44;5081915;28;20542;-67
2021/03/31 04:59:32;;;;;;;21.83;17.17;;;;;;;10.58;54.73;102074.66;5078665;28;20462;-66
2021/03/31 05:01:57;;;;;;;21.17;17.07;;;;;;;10.62;54.73;102080.84;5079656;28;20188;-67
2021/03/31 05:04:22;;;;;;;20.50;16.80;;;;;;;10.60;55.48;102078.19;5080784;28;20169;-67
2021/03/31 05:06:48;;;;;;;20.30;17.43;;;;;;;10.43;56.35;102080.28;5079054;28;20342;-67
2021/03/31 05:09:13;;;;;;;29.17;17.50;;;;;;;10.56;56.34;102081.53;5080851;28;20663;-68
2021/03/31 05:11:39;;;;;;;20.00;16.80;;;;;;;10.55;56.43;102084.09;5081175;28;20255;-68
2021/03/31 05:14:04;;;;;;;20.63;17.40;;;;;;;10.57;56.17;102088.53;5080992;28;20201;-67
2021/03/31 05:16:30;;;;;;;20.30;16.83;;;;;;;10.89;55.80;102086.03;5079980;28;20530;-68
2021/03/31 05:18:55;;;;;;;19.67;17.00;;;;;;;10.70;56.49;102078.47;5080990;28;20420;-66
2021/03/31 05:21:20;;;;;;;22.13;18.80;;;;;;;10.78;56.47;102077.88;5080587;28;20169;-68
2021/03/31 05:23:46;;;;;;;21.37;17.87;;;;;;;10.81;55.84;102077.09;5063369;28;20199;-67
2021/03/31 05:26:11;;;;;;;23.60;18.10;;;;;;;10.86;55.82;102072.88;5079621;28;20225;-67
2021/03/31 05:28:36;;;;;;;23.90;18.30;;;;;;;10.72;56.48;102067.25;5080896;28;20195;-67
2021/03/31 05:31:02;;;;;;;22.73;18.53;;;;;;;10.85;55.55;102067.63;5080208;28;20188;-67
2021/03/31 05:33:27;;;;;;;23.13;18.10;;;;;;;10.97;55.12;102073.19;5079753;28;20338;-68
2021/03/31 05:35:52;;;;;;;19.80;17.67;;;;;;;11.20;54.59;102070.38;5078871;28;20196;-68
2021/03/31 05:38:17;;;;;;;26.43;18.80;;;;;;;11.41;54.29;102068.38;5080712;28;20259;-68
2021/03/31 05:40:44;;;;;;;28.70;19.87;;;;;;;11.43;53.87;102068.41;5078635;28;20188;-68
2021/03/31 05:43:09;;;;;;;24.53;18.00;;;;;;;11.57;53.46;102067.06;5080012;28;20177;-69
2021/03/31 05:45:35;;;;;;;23.83;17.53;;;;;;;11.71;53.18;102059.59;5063368;28;20370;-67
2021/03/31 05:48:02;;;;;;;20.33;18.10;;;;;;;11.41;53.97;102065.75;5080194;28;20212;-69
2021/03/31 05:50:27;;;;;;;21.20;18.47;;;;;;;11.26;54.97;102067.94;5079000;28;20169;-68
2021/03/31 05:52:53;;;;;;;19.73;17.07;;;;;;;11.82;53.17;102065.09;5080068;28;20447;-69
2021/03/31 05:55:18;;;;;;;27.80;19.07;;;;;;;11.69;53.61;102063.91;5080064;28;20179;-69
2021/03/31 05:57:45;;;;;;;23.43;18.87;;;;;;;11.59;53.89;102062.75;5080094;28;20183;-68
2021/03/31 06:00:15;;;;;;;20.70;17.63;;;;;;;13.75;48.40;102064.09;5080409;28;20173;-68
2021/03/31 06:02:41;;;;;;;20.10;15.80;;;;;;;15.82;42.98;102045.88;5079754;28;20427;-68
2021/03/31 06:05:08;;;;;;;22.80;17.03;;;;;;;16.93;40.19;102050.16;5079743;28;20382;-68
2021/03/31 06:07:34;;;;;;;22.50;16.90;;;;;;;17.54;38.46;102041.53;5080689;28;20468;-68
2021/03/31 06:10:06;;;;;;;28.33;17.10;;;;;;;18.27;36.56;102036.31;5079518;28;20422;-69
2021/03/31 06:12:32;;;;;;;21.93;16.20;;;;;;;18.99;35.05;102028.16;5078251;28;20196;-69
2021/03/31 06:15:14;;;;;;;20.30;15.00;;;;;;;19.21;34.77;102040.41;5079759;28;20787;-69
2021/03/31 06:17:55;;;;;;;19.17;16.40;;;;;;;19.24;34.38;102033.34;5079579;28;20425;-68
2021/03/31 06:20:50;;;;;;;21.20;16.40;;;;;;;19.19;34.27;102035.13;5079539;28;20421;-68
2021/03/31 06:26:22;;;;;;;17.37;15.60;;;;;;;20.42;31.98;102022.69;5079442;28;20458;-69
2021/03/31 06:28:53;;;;;;;20.43;15.80;;;;;;;20.42;31.63;102024.44;5062324;28;20816;-68
2021/03/31 06:31:19;;;;;;;21.43;15.87;;;;;;;20.51;31.17;102019.94;5079358;28;20418;-67
2021/03/31 06:33:46;;;;;;;25.10;16.07;;;;;;;20.95;30.49;102016.78;5079218;28;20466;-67
2021/03/31 06:36:14;;;;;;;18.07;15.07;;;;;;;20.91;29.99;102017.72;5079069;28;20419;-68
2021/03/31 06:38:48;;;;;;;17.73;15.93;;;;;;;20.49;30.64;102013.75;5062053;28;20399;-68
2021/03/31 06:41:29;;;;;;;17.63;14.37;;;;;;;21.06;28.72;102014.84;5079069;28;20407;-68
2021/03/31 06:44:04;;;;;;;16.07;14.47;;;;;;;21.11;28.63;102015.66;5079285;28;20403;-68
2021/03/31 06:46:40;;;;;;;19.17;15.40;;;;;;;21.66;28.11;102021.97;5079167;28;20406;-68
2021/03/31 06:49:05;;;;;;;17.53;15.73;;;;;;;21.65;28.17;102016.66;5079284;28;20489;-68
2021/03/31 06:51:32;;;;;;;20.70;15.93;;;;;;;20.86;28.90;102016.00;5078837;28;20450;-68
2021/03/31 06:54:21;;;;;;;20.23;14.80;;;;;;;21.77;27.60;102015.56;5078676;28;20200;-68
2021/03/31 06:56:55;;;;;;;17.90;15.23;;;;;;;20.80;29.39;102018.72;5068889;28;20478;-68
2021/03/31 06:59:30;;;;;;;17.53;15.70;;;;;;;21.07;29.32;102016.63;5066702;28;20443;-68
2021/03/31 07:02:00;;;;;;;17.83;16.03;;;;;;;21.14;28.63;102007.66;5069069;28;20550;-69
2021/03/31 07:04:26;;;;;;;18.20;16.20;;;;;;;21.59;29.09;102006.16;5044303;28;20448;-68
2021/03/31 07:07:08;;;;;;;20.40;15.53;;;;;;;22.40;27.65;102005.63;5076456;28;20441;-69
2021/03/31 07:09:37;;;;;;;20.20;15.00;;;;;;;21.62;28.18;102001.69;5064888;28;20875;-68
2021/03/31 07:12:23;;;;;;;18.30;16.40;;;;;;;23.07;26.38;101997.13;5058273;28;20490;-68
2021/03/31 07:14:50;;;;;;;16.43;14.73;;;;;;;23.66;24.97;101994.84;5060404;28;20439;-71
2021/03/31 07:17:24;;;;;;;16.00;14.30;;;;;;;24.12;24.45;101992.78;5058479;28;20419;-70
2021/03/31 07:19:50;;;;;;;17.20;15.30;;;;;;;24.02;24.51;101991.31;5069281;28;20462;-69
2021/03/31 07:22:17;;;;;;;16.23;14.67;;;;;;;24.54;23.83;101992.53;5059261;28;20536;-69
2021/03/31 07:24:42;;;;;;;21.80;15.83;;;;;;;24.04;23.68;101982.38;5058094;28;20487;-68
2021/03/31 07:27:08;;;;;;;17.17;15.20;;;;;;;22.90;24.01;101989.53;5058799;28;20440;-67
2021/03/31 07:29:36;;;;;;;17.60;15.70;;;;;;;22.23;24.00;101989.97;5058138;28;20215;-67
2021/03/31 07:32:03;;;;;;;17.23;15.43;;;;;;;23.92;21.57;101985.34;5040454;28;20247;-67
2021/03/31 07:34:31;;;;;;;17.97;15.87;;;;;;;24.47;20.45;101980.28;5072057;28;20439;-68
2021/03/31 07:36:57;;;;;;;18.67;16.60;;;;;;;24.81;19.94;101971.28;5068725;28;20780;-68
2021/03/31 07:39:25;;;;;;;18.67;16.70;;;;;;;23.99;20.72;101980.72;5044813;28;20447;-68
2021/03/31 07:41:51;;;;;;;18.27;16.40;;;;;;;25.02;19.98;101967.09;5076558;28;20522;-69
2021/03/31 07:44:20;;;;;;;18.87;16.87;;;;;;;24.57;20.18;101964.00;5051751;28;20440;-68
2021/03/31 07:46:46;;;;;;;21.97;16.03;;;;;;;24.19;20.95;101973.06;5059137;28;20422;-70
2021/03/31 07:49:12;;;;;;;18.33;16.30;;;;;;;23.87;21.86;101969.47;5041047;28;20439;-70
2021/03/31 07:51:39;;;;;;;19.70;17.60;;;;;;;24.35;20.99;101962.84;5045279;28;20435;-70
2021/03/31 07:54:05;;;;;;;18.30;16.57;;;;;;;24.60;20.68;101964.81;5057852;28;20759;-70
2021/03/31 07:56:30;;;;;;;21.33;17.50;;;;;;;25.13;20.31;101958.75;5058202;28;20526;-69
2021/03/31 07:59:01;;;;;;;18.17;16.47;;;;;;;24.98;20.84;101956.59;5060431;28;20470;-68
2021/03/31 08:01:35;;;;;;;18.43;16.40;;;;;;;24.33;22.60;101958.50;5073480;28;20473;-67
2021/03/31 08:04:02;;;;;;;20.83;16.97;;;;;;;23.32;23.24;101962.88;5059781;28;20434;-68
2021/03/31 08:06:31;;;;;;;23.03;16.60;;;;;;;23.47;22.85;101954.50;5057300;28;20413;-68
2021/03/31 08:09:03;;;;;;;18.03;16.30;;;;;;;25.51;20.64;101955.78;5045091;28;20474;-67
2021/03/31 08:11:38;;;;;;;21.23;17.17;;;;;;;25.36;20.30;101957.16;5062019;28;20543;-67
2021/03/31 08:14:05;;;;;;;18.83;16.80;;;;;;;25.72;19.96;101955.03;5057930;28;20467;-67
2021/03/31 08:16:37;;;;;;;24.03;17.07;;;;;;;24.81;21.06;101952.63;5061958;28;20537;-67
2021/03/31 08:19:06;;;;;;;20.00;17.70;;;;;;;25.77;20.29;101946.84;5061674;28;20440;-67
2021/03/31 08:21:34;;;;;;;19.27;17.00;;;;;;;25.16;20.88;101947.09;5062435;28;20501;-67
2021/03/31 08:24:03;;;;;;;19.10;17.30;;;;;;;25.40;20.81;101942.78;5061736;28;20825;-67
2021/03/31 08:26:32;;;;;;;20.20;17.87;;;;;;;25.91;20.37;101935.66;5061811;28;20471;-67
2021/03/31 08:29:03;;;;;;;21.13;16.70;;;;;;;26.07;19.77;101938.69;5061587;28;20439;-68
2021/03/31 08:31:30;;;;;;;20.47;17.30;;;;;;;25.55;20.75;101930.72;5060536;28;20766;-68
2021/03/31 08:33:55;;;;;;;24.27;17.40;;;;;;;26.06;20.17;101928.97;5044175;28;20749;-70
2021/03/31 08:36:21;;;;;;;21.63;17.83;;;;;;;26.08;20.48;101923.56;5061359;28;20546;-69
2021/03/31 08:38:54;;;;;;;20.20;16.40;;;;;;;26.51;19.63;101928.13;5061090;28;20186;-70
2021/03/31 08:41:21;;;;;;;22.63;17.77;;;;;;;26.84;19.23;101918.88;5061779;28;20844;-70
2021/03/31 08:43:48;;;;;;;20.10;17.77;;;;;;;26.26;20.13;101919.31;5070419;28;20445;-68
2021/03/31 08:46:30;;;;;;;19.60;17.60;;;;;;;25.77;19.97;101916.59;5061210;28;20711;-68
2021/03/31 08:48:55;;;;;;;23.57;18.57;;;;;;;26.65;19.46;101919.56;5061017;28;20426;-69
2021/03/31 08:51:20;;;;;;;19.93;17.90;;;;;;;26.93;19.03;101921.19;5060723;28;20408;-68
2021/03/31 08:53:46;;;;;;;18.50;16.50;;;;;;;27.11;17.81;101914.19;5065718;28;20192;-67
2021/03/31 08:56:22;;;;;;;18.73;16.70;;;;;;;27.52;18.15;101910.72;5080646;28;20179;-68
2021/03/31 08:58:50;;;;;;;20.07;16.80;;;;;;;27.42;17.22;101907.59;5078092;28;20420;-68
2021/03/31 09:01:27;;;;;;;18.80;16.90;;;;;;;27.09;17.93;101899.13;5061332;28;20487;-67
2021/03/31 09:03:52;;;;;;;21.50;17.50;;;;;;;26.83;18.39;101904.63;5060929;28;20931;-68
2021/03/31 09:06:19;;;;;;;18.33;16.60;;;;;;;25.53;19.16;101900.50;5044604;28;20435;-68
2021/03/31 09:08:45;;;;;;;19.70;16.37;;;;;;;25.56;19.69;101911.09;5073996;28;20177;-68
2021/03/31 09:11:10;;;;;;;19.00;17.10;;;;;;;26.10;19.68;101909.22;5079940;28;20745;-68
2021/03/31 09:13:38;;;;;;;18.77;16.77;;;;;;;26.83;18.89;101898.41;5080800;28;20539;-69
2021/03/31 09:16:09;;;;;;;19.30;17.30;;;;;;;28.29;17.09;101901.09;5069409;28;20193;-69
2021/03/31 09:18:38;;;;;;;18.53;16.53;;;;;;;28.42;16.99;101890.66;5060478;28;20492;-69
2021/03/31 09:21:05;;;;;;;17.00;15.30;;;;;;;25.60;19.36;101895.81;5060361;28;20549;-68
2021/03/31 09:23:30;;;;;;;20.60;17.27;;;;;;;27.93;17.15;101893.75;5059912;28;20423;-69
2021/03/31 09:26:00;;;;;;;18.20;16.40;;;;;;;28.92;16.40;101883.81;5059746;28;20452;-70
2021/03/31 09:28:26;;;;;;;17.90;14.90;;;;;;;28.74;16.43;101886.47;5060273;28;20555;-70
2021/03/31 09:30:54;;;;;;;22.53;20.30;;;;;;;28.78;16.68;101887.16;5071408;28;20530;-68
2021/03/31 09:33:32;;;;;;;21.67;17.87;;;;;;;29.26;15.93;101877.63;5077309;28;20475;-69
2021/03/31 09:36:10;;;;;;;17.37;15.60;;;;;;;27.44;17.74;101886.97;5079965;28;20494;-68
2021/03/31 09:38:35;;;;;;;17.77;15.33;;;;;;;27.94;17.20;101882.09;5080060;28;20518;-70
2021/03/31 09:41:03;;;;;;;20.60;18.60;;;;;;;28.67;16.96;101871.59;5078488;28;20537;-71
2021/03/31 09:43:30;;;;;;;20.27;17.20;;;;;;;28.94;16.32;101872.03;5080157;28;20161;-70
2021/03/31 09:45:56;;;;;;;18.17;16.27;;;;;;;28.47;16.60;101867.16;5078524;28;20442;-70
2021/03/31 09:48:21;;;;;;;18.97;16.23;;;;;;;29.26;16.29;101861.50;5075101;28;20439;-69
2021/03/31 09:50:47;;;;;;;18.73;16.67;;;;;;;28.48;16.73;101867.09;5062031;28;20427;-68
2021/03/31 09:53:12;;;;;;;18.83;17.03;;;;;;;29.08;16.05;101863.31;5062240;28;20211;-68
2021/03/31 09:55:38;;;;;;;19.17;16.53;;;;;;;27.82;17.25;101864.75;5077109;28;20192;-68
2021/03/31 09:58:04;;;;;;;18.63;16.70;;;;;;;29.14;16.60;101856.75;5080071;28;20256;-69
2021/03/31 10:00:34;;;;;;;18.97;17.20;;;;;;;26.83;19.00;101869.84;5079402;28;20261;-66
2021/03/31 10:02:59;;;;;;;18.60;16.70;;;;;;;28.72;17.15;101859.69;5079189;28;20502;-67
2021/03/31 10:05:26;;;;;;;19.37;17.40;;;;;;;28.04;17.42;101859.34;5079085;28;20433;-70
2021/03/31 10:08:02;;;;;;;17.93;16.13;;;;;;;29.01;16.44;101848.44;5078670;28;20195;-68
2021/03/31 10:10:53;;;;;;;18.80;17.07;;;;;;;29.14;16.69;101837.94;5062438;28;20453;-69
2021/03/31 10:13:20;;;;;;;21.33;17.40;;;;;;;29.47;16.38;101838.03;5079000;28;20488;-68
2021/03/31 10:16:02;;;;;;;18.73;16.73;;;;;;;28.26;16.94;101837.75;5077695;28;20439;-68
2021/03/31 10:18:29;;;;;;;17.93;16.13;;;;;;;29.17;16.30;101832.41;5077256;28;20439;-68
2021/03/31 10:20:57;;;;;;;18.60;16.90;;;;;;;29.71;16.15;101829.59;5058386;28;20461;-68
2021/03/31 10:23:34;;;;;;;18.80;16.90;;;;;;;28.37;17.07;101830.06;5065988;28;20436;-67
2021/03/31 10:26:30;;;;;;;20.20;17.40;;;;;;;28.84;16.79;101823.31;5059831;28;20476;-68
2021/03/31 10:29:06;;;;;;;20.73;17.33;;;;;;;28.97;15.92;101818.22;5066322;28;20452;-68
2021/03/31 10:31:36;;;;;;;19.73;17.83;;;;;;;27.78;17.63;101822.97;5059322;28;20682;-68
2021/03/31 10:34:03;;;;;;;20.47;16.73;;;;;;;28.03;17.10;101820.94;5058840;28;20910;-68
2021/03/31 10:37:12;;;;;;;21.33;15.53;;;;;;;28.37;16.82;101810.41;5057374;28;20804;-68
2021/03/31 10:50:28;;;;;;;19.43;16.77;;;;;;;29.29;16.39;101796.88;5058053;28;20411;-68
2021/03/31 10:52:56;;;;;;;18.73;16.83;;;;;;;29.91;15.91;101793.59;5058053;28;20498;-68
2021/03/31 10:55:22;;;;;;;19.80;17.23;;;;;;;29.77;15.73;101790.75;5060292;28;20514;-67
2021/03/31 10:57:47;;;;;;;21.83;18.07;;;;;;;29.59;16.04;101787.28;5058526;28;20523;-67
2021/03/31 11:00:13;;;;;;;20.93;16.30;;;;;;;28.92;16.70;101785.34;5058531;28;20551;-69
2021/03/31 11:02:38;;;;;;;20.20;17.77;;;;;;;28.09;17.67;101782.25;5058789;28;20559;-70
2021/03/31 11:05:04;;;;;;;19.97;16.87;;;;;;;27.48;17.97;101791.28;5058101;28;20439;-68
2021/03/31 11:07:30;;;;;;;17.73;15.83;;;;;;;28.96;16.80;101770.81;5058667;28;20169;-66
2021/03/31 11:09:55;;;;;;;25.30;18.00;;;;;;;30.63;15.75;101766.25;5069868;28;20180;-66
2021/03/31 11:12:20;;;;;;;21.33;16.90;;;;;;;29.48;15.83;101774.41;5057858;28;20217;-66
2021/03/31 11:14:45;;;;;;;25.53;18.03;;;;;;;27.61;18.12;101776.41;5058534;28;20408;-67
2021/03/31 11:17:19;;;;;;;25.00;19.57;;;;;;;27.84;18.38;101774.47;5059347;28;20197;-68
2021/03/31 11:19:51;;;;;;;24.40;19.30;;;;;;;28.10;17.73;101767.03;5058006;28;20550;-68
2021/03/31 11:27:44;;;;;;;27.30;19.47;;;;;;;29.20;17.21;101755.25;5061856;28;20495;-67
2021/03/31 11:30:10;;;;;;;20.07;17.60;;;;;;;28.61;17.57;101753.81;5057772;28;20534;-67
2021/03/31 11:32:38;;;;;;;23.40;17.90;;;;;;;28.77;17.56;101743.19;5057732;28;20215;-67
2021/03/31 11:35:04;;;;;;;20.13;18.13;;;;;;;28.31;17.68;101738.31;5058112;28;20444;-66